Time;durP1;ratioP1;P1;durP2;ratioP2;P2;SDS_P1;SDS_P2;PMS_P1;PMS_P2;Temp;Humidity;BMP_temperature;BMP_pressure;BME280_temperature;BME280_humidity;BME280_pressure;Samples;Min_cycle;Max_cycle;Signal;HPM_P1;HPM_P2
2023/09/13 00:00:56;;;;;;;3.88;2.72;;;23.80;99.90;;;;;;5083294;28;44725;-58
2023/09/13 00:03:23;;;;;;;5.97;3.00;;;23.90;99.90;;;;;;5070133;28;45288;-58
2023/09/13 00:05:50;;;;;;;3.30;2.40;;;23.80;99.90;;;;;;5082777;28;45126;-58
2023/09/13 00:08:16;;;;;;;2.72;2.40;;;23.80;99.90;;;;;;5086709;27;45221;-58
2023/09/13 00:10:45;;;;;;;4.10;2.88;;;23.80;99.90;;;;;;5084528;28;45193;-58
2023/09/13 00:13:12;;;;;;;3.75;2.80;;;23.80;99.90;;;;;;5085797;28;45462;-58
2023/09/13 00:15:43;;;;;;;4.55;2.85;;;23.90;99.90;;;;;;5084979;28;45089;-58
2023/09/13 00:18:12;;;;;;;3.65;2.42;;;23.80;99.90;;;;;;5084846;28;45196;-58
2023/09/13 00:20:39;;;;;;;4.97;2.92;;;23.90;99.90;;;;;;5084993;28;45198;-58
2023/09/13 00:23:06;;;;;;;2.75;2.40;;;23.80;99.90;;;;;;5085115;27;45231;-58
2023/09/13 00:25:33;;;;;;;4.25;2.80;;;23.80;99.90;;;;;;5083694;28;45189;-58
2023/09/13 00:28:00;;;;;;;3.60;2.63;;;23.80;99.90;;;;;;5085925;27;45148;-58
2023/09/13 00:30:26;;;;;;;3.33;2.47;;;23.80;99.90;;;;;;5082699;28;44694;-58
2023/09/13 00:32:53;;;;;;;3.47;2.60;;;23.80;99.90;;;;;;5084290;27;46365;-58
2023/09/13 00:35:22;;;;;;;3.65;2.65;;;23.80;99.90;;;;;;5082169;28;45164;-58
2023/09/13 00:37:50;;;;;;;3.45;2.47;;;23.80;99.90;;;;;;5081751;28;45051;-58
2023/09/13 00:40:17;;;;;;;2.80;2.25;;;23.80;99.90;;;;;;5084552;28;45002;-58
2023/09/13 00:42:44;;;;;;;3.50;2.80;;;23.80;99.90;;;;;;5085382;28;45409;-58
2023/09/13 00:45:11;;;;;;;5.47;2.30;;;23.80;99.90;;;;;;5076703;28;45064;-58
2023/09/13 00:47:39;;;;;;;3.13;2.60;;;23.80;99.90;;;;;;5084302;28;45195;-58
2023/09/13 00:50:08;;;;;;;2.90;2.40;;;23.80;99.90;;;;;;5073474;27;45153;-58
2023/09/13 00:52:37;;;;;;;3.45;2.55;;;23.80;99.90;;;;;;5072580;28;45183;-58
2023/09/13 00:55:07;;;;;;;4.13;2.58;;;23.80;99.90;;;;;;5081774;28;45114;-58
2023/09/13 00:57:34;;;;;;;2.40;2.10;;;23.80;99.90;;;;;;5076205;28;45120;-58
2023/09/13 01:00:06;;;;;;;3.08;2.20;;;23.80;99.90;;;;;;5081860;27;45224;-58
2023/09/13 01:02:33;;;;;;;3.63;2.70;;;23.80;99.90;;;;;;5076111;28;45233;-58
2023/09/13 01:04:59;;;;;;;4.10;2.70;;;23.70;99.90;;;;;;5079342;27;45168;-58
2023/09/13 01:07:26;;;;;;;4.57;2.90;;;23.70;99.90;;;;;;5078163;28;45086;-58
2023/09/13 01:09:54;;;;;;;5.35;3.42;;;23.70;99.90;;;;;;5079245;27;45122;-58
2023/09/13 01:12:22;;;;;;;5.25;3.40;;;23.60;99.90;;;;;;5083125;28;46351;-58
2023/09/13 01:14:49;;;;;;;4.43;3.58;;;23.70;99.90;;;;;;5084808;28;45061;-57
2023/09/13 01:17:21;;;;;;;6.32;3.88;;;23.60;99.90;;;;;;5081522;27;44625;-58
2023/09/13 01:19:54;;;;;;;5.45;3.80;;;23.70;99.90;;;;;;5083786;28;44650;-58
2023/09/13 01:22:55;;;;;;;4.78;3.53;;;23.60;99.90;;;;;;5076439;28;46366;-59
2023/09/13 01:25:58;;;;;;;4.63;3.50;;;23.70;99.90;;;;;;5084860;28;45139;-59
2023/09/13 01:28:41;;;;;;;4.78;3.58;;;23.70;99.90;;;;;;5072615;28;45297;-57
2023/09/13 01:31:10;;;;;;;8.07;4.05;;;23.70;99.90;;;;;;5073759;28;45194;-58
2023/09/13 01:33:37;;;;;;;4.38;3.20;;;23.70;99.90;;;;;;5079176;28;48091;-58
2023/09/13 01:36:05;;;;;;;4.60;3.38;;;23.70;99.90;;;;;;5075122;28;45323;-58
2023/09/13 01:38:32;;;;;;;6.38;3.72;;;23.70;99.90;;;;;;5084631;28;45294;-58
2023/09/13 01:41:05;;;;;;;5.28;3.58;;;23.70;99.90;;;;;;5081701;27;45184;-59
2023/09/13 01:43:33;;;;;;;5.38;3.45;;;23.70;99.90;;;;;;5076656;28;47011;-59
2023/09/13 01:46:03;;;;;;;4.20;3.25;;;23.70;99.90;;;;;;5082230;28;45145;-59
2023/09/13 01:48:30;;;;;;;4.03;3.35;;;23.80;99.90;;;;;;5074728;27;45193;-59
2023/09/13 01:50:58;;;;;;;4.90;3.40;;;23.80;99.90;;;;;;5082123;28;45238;-59
2023/09/13 01:53:25;;;;;;;4.93;3.60;;;23.70;99.90;;;;;;5083641;27;45388;-58
2023/09/13 01:55:52;;;;;;;5.25;3.50;;;23.80;99.90;;;;;;5072988;28;45140;-59
2023/09/13 01:58:18;;;;;;;5.22;3.70;;;23.80;99.90;;;;;;5079987;28;45090;-58
2023/09/13 02:00:45;;;;;;;4.47;3.20;;;23.80;99.90;;;;;;5083737;28;45078;-58
2023/09/13 02:03:13;;;;;;;4.95;3.58;;;23.80;99.90;;;;;;5066045;28;45662;-58
2023/09/13 02:05:41;;;;;;;5.38;4.03;;;23.70;99.90;;;;;;5079426;27;45215;-58
2023/09/13 02:08:08;;;;;;;5.40;3.90;;;23.80;99.90;;;;;;5081470;27;45090;-58
2023/09/13 02:10:35;;;;;;;4.82;3.63;;;23.80;99.90;;;;;;5073373;28;45251;-58
2023/09/13 02:13:02;;;;;;;6.28;3.92;;;23.80;99.90;;;;;;5083001;28;45230;-58
2023/09/13 02:15:29;;;;;;;5.97;3.85;;;23.80;99.90;;;;;;5082171;28;45262;-58
2023/09/13 02:17:56;;;;;;;4.50;3.53;;;23.80;99.90;;;;;;5082173;28;45074;-58
2023/09/13 02:20:24;;;;;;;6.57;4.32;;;23.70;99.90;;;;;;5083644;28;45051;-58
2023/09/13 02:22:50;;;;;;;6.82;4.00;;;23.80;99.90;;;;;;5078058;28;45462;-58
2023/09/13 02:25:17;;;;;;;6.05;4.35;;;23.70;99.90;;;;;;5083381;28;45127;-58
2023/09/13 02:27:44;;;;;;;6.13;4.07;;;23.80;99.90;;;;;;5077611;28;45090;-58
2023/09/13 02:30:11;;;;;;;8.40;4.10;;;23.70;99.90;;;;;;5079031;28;44979;-58
2023/09/13 02:32:38;;;;;;;6.97;4.80;;;23.80;99.90;;;;;;5078087;28;47834;-58
2023/09/13 02:35:05;;;;;;;7.13;4.55;;;23.80;99.90;;;;;;5079714;28;45517;-58
2023/09/13 02:37:34;;;;;;;7.82;5.22;;;23.80;99.90;;;;;;5084011;28;45145;-58
2023/09/13 02:40:01;;;;;;;7.35;5.50;;;23.80;99.90;;;;;;5084568;28;45208;-58
2023/09/13 02:42:28;;;;;;;8.32;4.95;;;23.70;99.90;;;;;;5083904;28;47304;-58
2023/09/13 02:44:55;;;;;;;8.00;5.50;;;23.70;99.90;;;;;;5071072;28;45208;-58
2023/09/13 02:47:22;;;;;;;7.88;5.60;;;23.70;99.90;;;;;;5081824;28;45215;-58
2023/09/13 02:49:49;;;;;;;8.23;5.75;;;23.70;99.90;;;;;;5078555;28;45244;-58
2023/09/13 02:52:27;;;;;;;10.13;6.03;;;23.80;99.90;;;;;;5072320;28;47208;-58
2023/09/13 02:54:56;;;;;;;8.45;5.90;;;23.70;99.90;;;;;;5079639;28;45129;-58
2023/09/13 02:57:22;;;;;;;9.85;5.72;;;23.70;99.90;;;;;;5082115;28;45099;-58
2023/09/13 02:59:49;;;;;;;9.18;6.10;;;23.80;99.90;;;;;;5075296;28;45350;-58
2023/09/13 03:02:16;;;;;;;10.02;6.22;;;23.70;99.90;;;;;;5076070;28;45172;-58
2023/09/13 03:04:43;;;;;;;9.88;6.10;;;23.70;99.90;;;;;;5076313;28;45597;-58
2023/09/13 03:07:10;;;;;;;10.10;6.43;;;23.70;99.90;;;;;;5073379;28;44627;-58
2023/09/13 03:09:37;;;;;;;11.30;6.57;;;23.70;99.90;;;;;;5078978;27;45244;-58
2023/09/13 03:12:06;;;;;;;9.98;6.30;;;23.70;99.90;;;;;;5079315;28;45178;-58
2023/09/13 03:14:33;;;;;;;10.80;6.60;;;23.70;99.90;;;;;;5081620;28;45068;-58
2023/09/13 03:16:59;;;;;;;9.45;6.30;;;23.70;99.90;;;;;;5079413;27;45257;-58
2023/09/13 03:19:27;;;;;;;9.35;6.47;;;23.70;99.90;;;;;;5078796;28;45573;-58
2023/09/13 03:21:53;;;;;;;10.57;6.72;;;23.70;99.90;;;;;;5079633;28;45258;-58
2023/09/13 03:24:20;;;;;;;10.70;7.20;;;23.70;99.90;;;;;;5082116;28;44630;-58
2023/09/13 03:26:47;;;;;;;12.60;7.60;;;23.70;99.90;;;;;;5077810;28;45048;-58
2023/09/13 03:29:16;;;;;;;10.82;7.38;;;23.70;99.90;;;;;;5079657;27;45206;-58
2023/09/13 03:31:42;;;;;;;10.30;7.15;;;23.70;99.90;;;;;;5083095;27;45212;-58
2023/09/13 03:34:09;;;;;;;12.48;7.38;;;23.70;99.90;;;;;;5082108;28;45224;-58
2023/09/13 03:36:36;;;;;;;12.55;7.80;;;23.70;99.90;;;;;;5075027;28;45212;-59
2023/09/13 03:39:03;;;;;;;13.30;7.25;;;23.70;99.90;;;;;;5082320;28;45173;-59
2023/09/13 03:41:31;;;;;;;12.05;8.20;;;23.70;99.90;;;;;;5070444;28;46356;-59
2023/09/13 03:43:57;;;;;;;15.55;8.50;;;23.70;99.90;;;;;;5073881;28;44675;-59
2023/09/13 03:46:25;;;;;;;13.32;7.88;;;23.70;99.90;;;;;;5081353;28;45178;-59
2023/09/13 03:48:52;;;;;;;13.27;8.23;;;23.70;99.90;;;;;;5081137;28;45339;-59
2023/09/13 03:51:19;;;;;;;15.70;8.73;;;23.70;99.90;;;;;;5077560;28;47291;-59
2023/09/13 03:53:47;;;;;;;13.45;8.90;;;23.70;99.90;;;;;;5082201;28;45674;-59
2023/09/13 03:56:14;;;;;;;16.33;8.90;;;23.70;99.90;;;;;;5082491;28;45124;-59
2023/09/13 03:58:40;;;;;;;16.23;9.80;;;23.70;99.90;;;;;;5080392;28;45267;-59
2023/09/13 04:01:07;;;;;;;14.43;9.25;;;23.70;99.90;;;;;;5081956;27;47009;-59
2023/09/13 04:03:36;;;;;;;14.55;9.25;;;23.70;99.90;;;;;;5078574;27;45175;-59
2023/09/13 04:06:03;;;;;;;16.23;9.45;;;23.70;99.90;;;;;;5076067;27;45281;-59
2023/09/13 04:08:30;;;;;;;15.10;9.80;;;23.70;99.90;;;;;;5083911;27;45217;-59
2023/09/13 04:10:57;;;;;;;18.23;10.20;;;23.70;99.90;;;;;;5083684;28;47291;-59
2023/09/13 04:13:23;;;;;;;16.05;10.45;;;23.70;99.90;;;;;;5086147;28;45289;-59
2023/09/13 04:15:50;;;;;;;14.48;9.27;;;23.70;99.90;;;;;;5081926;28;45170;-56
2023/09/13 04:18:17;;;;;;;15.43;9.77;;;23.70;99.90;;;;;;5085941;28;44730;-57
2023/09/13 04:20:46;;;;;;;17.90;10.43;;;23.70;99.90;;;;;;5083423;28;45335;-58
2023/09/13 04:23:14;;;;;;;15.57;10.40;;;23.70;99.90;;;;;;5085741;28;45253;-59
2023/09/13 04:25:41;;;;;;;17.88;10.80;;;23.70;99.90;;;;;;5084660;28;45252;-58
2023/09/13 04:28:08;;;;;;;16.95;11.15;;;23.70;99.90;;;;;;5083273;28;45107;-58
2023/09/13 04:30:34;;;;;;;20.95;11.93;;;23.70;99.90;;;;;;5078065;28;45254;-58
2023/09/13 04:33:03;;;;;;;19.70;13.18;;;23.70;99.90;;;;;;5085277;27;45306;-58
2023/09/13 04:35:29;;;;;;;23.90;14.77;;;23.70;99.90;;;;;;5083244;27;45272;-58
2023/09/13 04:37:57;;;;;;;23.67;15.45;;;23.60;99.90;;;;;;5086182;28;45189;-56
2023/09/13 04:40:24;;;;;;;26.02;15.23;;;23.60;99.90;;;;;;5077104;28;45091;-56
2023/09/13 04:42:55;;;;;;;26.83;17.83;;;23.60;99.90;;;;;;5082020;28;45194;-55
2023/09/13 04:45:21;;;;;;;27.45;16.38;;;23.50;99.90;;;;;;5079147;27;44726;-56
2023/09/13 04:47:48;;;;;;;25.40;16.80;;;23.60;99.90;;;;;;5080880;28;45194;-56
2023/09/13 04:50:15;;;;;;;25.60;16.75;;;23.60;99.90;;;;;;5083029;28;46617;-58
2023/09/13 04:52:42;;;;;;;24.70;15.70;;;23.60;99.90;;;;;;5079389;28;45884;-58
2023/09/13 04:55:10;;;;;;;24.45;16.52;;;23.60;99.90;;;;;;5078548;28;45190;-58
2023/09/13 04:57:37;;;;;;;24.83;15.50;;;23.60;99.90;;;;;;5069582;28;45137;-59
2023/09/13 05:00:07;;;;;;;25.42;15.63;;;23.60;99.90;;;;;;5085676;28;45210;-57
2023/09/13 05:02:34;;;;;;;23.70;16.13;;;23.60;99.90;;;;;;5076801;28;45177;-56
2023/09/13 05:05:01;;;;;;;26.00;15.05;;;23.60;99.90;;;;;;5083721;28;45081;-56
2023/09/13 05:07:28;;;;;;;21.80;14.07;;;23.60;99.90;;;;;;5071885;28;45289;-56
2023/09/13 05:09:55;;;;;;;22.20;14.43;;;23.60;99.90;;;;;;5078661;28;45542;-56
2023/09/13 05:12:23;;;;;;;21.58;13.63;;;23.60;99.90;;;;;;5079126;28;45117;-57
2023/09/13 05:14:50;;;;;;;21.83;14.50;;;23.60;99.90;;;;;;5079911;28;44595;-58
2023/09/13 05:17:17;;;;;;;23.35;13.30;;;23.60;99.90;;;;;;5077827;28;45335;-58
2023/09/13 05:19:43;;;;;;;20.15;13.60;;;23.60;99.90;;;;;;5083470;28;47325;-58
2023/09/13 05:22:10;;;;;;;21.10;13.05;;;23.70;99.90;;;;;;5076756;28;45608;-59
2023/09/13 05:24:37;;;;;;;21.73;13.40;;;23.60;99.90;;;;;;5078170;28;44638;-59
2023/09/13 05:27:04;;;;;;;19.67;12.75;;;23.60;99.90;;;;;;5080397;28;45139;-58
2023/09/13 05:29:33;;;;;;;21.73;12.68;;;23.60;99.90;;;;;;5075692;28;46930;-58
2023/09/13 05:32:00;;;;;;;17.40;12.18;;;23.60;99.90;;;;;;5070238;28;45105;-58
2023/09/13 05:34:28;;;;;;;16.75;11.70;;;23.60;99.90;;;;;;5083875;28;45091;-59
2023/09/13 05:36:55;;;;;;;18.85;11.65;;;23.60;99.90;;;;;;5084816;28;45046;-58
2023/09/13 05:39:22;;;;;;;19.42;12.50;;;23.60;99.90;;;;;;5083371;27;45427;-58
2023/09/13 05:41:49;;;;;;;17.98;11.30;;;23.60;99.90;;;;;;5075966;28;45183;-58
2023/09/13 05:44:20;;;;;;;17.65;11.18;;;23.60;99.90;;;;;;5082528;28;45211;-58
2023/09/13 05:46:48;;;;;;;16.60;10.20;;;23.60;99.90;;;;;;5067561;28;45356;-58
2023/09/13 05:49:17;;;;;;;16.80;10.90;;;23.60;99.90;;;;;;5074263;28;48328;-58
2023/09/13 05:51:45;;;;;;;16.50;10.57;;;23.60;99.90;;;;;;5070504;28;45218;-58
2023/09/13 05:54:12;;;;;;;15.68;10.82;;;23.60;99.90;;;;;;5074234;27;45135;-58
2023/09/13 05:56:40;;;;;;;17.23;10.52;;;23.60;99.90;;;;;;5073458;28;45186;-58
2023/09/13 05:59:07;;;;;;;16.48;10.25;;;23.60;99.90;;;;;;5083294;27;46290;-58
2023/09/13 06:01:34;;;;;;;16.33;10.05;;;23.60;99.90;;;;;;5077057;27;45159;-58
2023/09/13 06:04:02;;;;;;;15.15;10.00;;;23.60;99.90;;;;;;5075136;28;45148;-58
2023/09/13 06:06:29;;;;;;;14.93;9.95;;;23.60;99.90;;;;;;5080978;28;45338;-58
2023/09/13 06:08:57;;;;;;;14.13;9.82;;;23.60;99.90;;;;;;5082890;28;46257;-58
2023/09/13 06:11:25;;;;;;;13.18;9.18;;;23.60;99.90;;;;;;5077478;28;45148;-58
2023/09/13 06:13:53;;;;;;;12.73;8.68;;;23.60;99.90;;;;;;5079553;28;45137;-58
2023/09/13 06:16:20;;;;;;;14.13;9.38;;;23.60;99.90;;;;;;5072525;28;45288;-58
2023/09/13 06:18:46;;;;;;;11.95;9.00;;;23.60;99.90;;;;;;5077888;27;46281;-58
2023/09/13 06:21:15;;;;;;;11.13;8.32;;;23.60;99.90;;;;;;5076008;28;45293;-58
2023/09/13 06:23:42;;;;;;;12.32;9.50;;;23.60;99.90;;;;;;5077777;28;44618;-58
2023/09/13 06:26:09;;;;;;;12.95;8.55;;;23.60;99.90;;;;;;5073766;28;45338;-58
2023/09/13 06:28:36;;;;;;;11.02;8.48;;;23.60;99.90;;;;;;5074906;28;46036;-57
2023/09/13 06:31:03;;;;;;;11.07;8.57;;;23.60;99.90;;;;;;5082774;28;44563;-57
2023/09/13 06:33:30;;;;;;;13.73;8.35;;;23.60;99.90;;;;;;5082913;28;45201;-57
2023/09/13 06:35:57;;;;;;;11.63;7.82;;;23.60;99.90;;;;;;5078207;28;45375;-58
2023/09/13 06:38:25;;;;;;;12.93;8.38;;;23.60;99.90;;;;;;5072270;28;45126;-59
2023/09/13 06:40:52;;;;;;;9.98;7.28;;;23.60;99.90;;;;;;5074329;28;45149;-59
2023/09/13 06:43:19;;;;;;;10.43;7.72;;;23.60;99.90;;;;;;5073844;28;45130;-59
2023/09/13 06:45:47;;;;;;;11.30;7.40;;;23.60;99.90;;;;;;5082843;28;45077;-59
2023/09/13 06:48:14;;;;;;;9.43;7.07;;;23.60;99.90;;;;;;5076720;28;45269;-59
2023/09/13 06:50:41;;;;;;;9.55;7.32;;;23.60;99.90;;;;;;5069360;28;45105;-58
2023/09/13 06:53:08;;;;;;;10.05;6.97;;;23.60;99.90;;;;;;5081911;28;45184;-58
2023/09/13 06:55:36;;;;;;;10.02;7.30;;;23.60;99.90;;;;;;5081161;28;45189;-58
2023/09/13 06:58:05;;;;;;;10.52;7.55;;;23.60;99.90;;;;;;5082432;28;45194;-58
2023/09/13 07:00:32;;;;;;;11.82;7.80;;;23.60;99.90;;;;;;5078056;28;45926;-58
2023/09/13 07:02:59;;;;;;;10.15;7.38;;;23.60;99.90;;;;;;5079253;28;44656;-58
2023/09/13 07:05:26;;;;;;;10.18;6.95;;;23.60;99.90;;;;;;5071527;28;44689;-58
2023/09/13 07:07:53;;;;;;;9.93;7.05;;;23.60;99.90;;;;;;5073955;28;45457;-58
2023/09/13 07:10:20;;;;;;;8.32;6.43;;;23.60;99.90;;;;;;5082633;28;45616;-58
2023/09/13 07:12:48;;;;;;;8.80;6.50;;;23.60;99.90;;;;;;5083422;28;45214;-58
2023/09/13 07:15:16;;;;;;;9.40;6.75;;;23.60;99.90;;;;;;5081471;28;45273;-59
2023/09/13 07:17:43;;;;;;;8.45;6.97;;;23.60;99.90;;;;;;5081150;27;45122;-59
2023/09/13 07:20:11;;;;;;;10.48;7.25;;;23.60;99.90;;;;;;5070189;28;45192;-59
2023/09/13 07:22:38;;;;;;;8.25;6.32;;;23.60;99.90;;;;;;5083459;28;45182;-59
2023/09/13 07:25:06;;;;;;;11.07;7.18;;;23.60;99.90;;;;;;5072620;28;45193;-56
2023/09/13 07:27:33;;;;;;;10.82;6.78;;;23.60;99.90;;;;;;5079344;28;46973;-57
2023/09/13 07:30:02;;;;;;;8.98;6.95;;;23.60;99.90;;;;;;5067002;27;45200;-58
2023/09/13 07:32:29;;;;;;;8.98;6.75;;;23.60;99.90;;;;;;5076838;28;45149;-59
2023/09/13 07:34:55;;;;;;;10.77;7.05;;;23.60;99.90;;;;;;5083647;28;45109;-59
2023/09/13 07:37:22;;;;;;;9.73;5.93;;;23.60;99.90;;;;;;5074754;28;48030;-58
2023/09/13 07:39:49;;;;;;;8.85;6.55;;;23.60;99.90;;;;;;5072647;28;45041;-58
2023/09/13 07:42:16;;;;;;;8.95;6.65;;;23.60;99.90;;;;;;5079057;27;45125;-58
2023/09/13 07:44:42;;;;;;;9.80;6.75;;;23.60;99.90;;;;;;5066088;28;45369;-58
2023/09/13 07:47:10;;;;;;;9.23;6.03;;;23.60;99.90;;;;;;5071456;28;45229;-58
2023/09/13 07:49:37;;;;;;;8.70;6.32;;;23.60;99.90;;;;;;5066240;28;45040;-58
2023/09/13 07:52:04;;;;;;;8.13;6.03;;;23.70;99.90;;;;;;5072042;28;45099;-58
2023/09/13 07:54:31;;;;;;;9.23;6.30;;;23.60;99.90;;;;;;5080826;27;45159;-58
2023/09/13 07:56:58;;;;;;;10.05;6.32;;;23.60;99.90;;;;;;5080250;27;47429;-58
2023/09/13 07:59:25;;;;;;;8.10;6.32;;;23.60;99.90;;;;;;5083156;27;45140;-58
2023/09/13 08:01:52;;;;;;;8.02;5.85;;;23.60;99.90;;;;;;5083301;27;45101;-58
2023/09/13 08:04:20;;;;;;;9.48;5.88;;;23.70;99.90;;;;;;5076908;28;45086;-58
2023/09/13 08:06:47;;;;;;;9.05;6.13;;;23.70;99.90;;;;;;5069249;28;47041;-58
2023/09/13 08:09:15;;;;;;;8.13;6.03;;;23.70;99.90;;;;;;5077849;28;45191;-58
2023/09/13 08:11:42;;;;;;;7.90;5.47;;;23.60;99.90;;;;;;5079552;28;45137;-58
2023/09/13 08:14:09;;;;;;;7.78;5.45;;;23.70;99.90;;;;;;5084959;27;45178;-58
2023/09/13 08:16:36;;;;;;;9.35;5.70;;;23.60;99.90;;;;;;5072922;28;46227;-58
2023/09/13 08:19:03;;;;;;;8.93;5.22;;;23.70;99.90;;;;;;5079154;28;46005;-58
2023/09/13 08:21:31;;;;;;;8.60;5.28;;;23.60;99.90;;;;;;5070411;28;45207;-58
2023/09/13 08:23:59;;;;;;;7.82;6.05;;;23.70;99.90;;;;;;5079728;28;45044;-58
2023/09/13 08:26:26;;;;;;;7.18;5.55;;;23.70;99.90;;;;;;5083654;28;47203;-58
2023/09/13 08:28:52;;;;;;;9.85;5.38;;;23.60;99.90;;;;;;5083602;28;45256;-58
2023/09/13 08:31:19;;;;;;;7.35;5.55;;;23.70;99.90;;;;;;5076057;28;44965;-56
2023/09/13 08:33:46;;;;;;;6.80;5.07;;;23.70;99.90;;;;;;5084050;28;45243;-58
2023/09/13 08:36:13;;;;;;;7.28;5.25;;;23.70;99.90;;;;;;5083155;27;45281;-58
2023/09/13 08:38:41;;;;;;;8.00;5.32;;;23.70;99.90;;;;;;5076233;28;45129;-58
2023/09/13 08:41:08;;;;;;;7.82;5.28;;;23.70;99.90;;;;;;5075218;28;45368;-58
2023/09/13 08:43:37;;;;;;;7.68;5.50;;;23.70;99.90;;;;;;5081349;28;45134;-56
2023/09/13 08:46:06;;;;;;;8.40;5.50;;;23.70;99.90;;;;;;5069356;28;45186;-57
2023/09/13 08:48:34;;;;;;;7.35;4.95;;;23.70;99.90;;;;;;5080848;28;45243;-58
2023/09/13 08:51:04;;;;;;;8.38;5.35;;;23.70;99.80;;;;;;5078734;28;45047;-59
2023/09/13 08:53:33;;;;;;;8.85;5.53;;;23.70;99.80;;;;;;5080936;28;45220;-59
2023/09/13 08:56:04;;;;;;;8.60;4.85;;;23.70;99.80;;;;;;5078709;28;47899;-59
2023/09/13 08:58:31;;;;;;;7.00;5.15;;;23.70;99.80;;;;;;5079762;28;44657;-55
2023/09/13 09:01:00;;;;;;;7.47;5.20;;;23.70;99.80;;;;;;5075797;27;45086;-58
2023/09/13 09:03:28;;;;;;;9.02;5.50;;;23.80;99.80;;;;;;5072102;28;45395;-59
2023/09/13 09:05:56;;;;;;;6.97;4.63;;;23.80;99.80;;;;;;5077735;28;45139;-59
2023/09/13 09:08:26;;;;;;;7.13;5.28;;;23.80;99.70;;;;;;5072686;28;45086;-59
2023/09/13 09:10:56;;;;;;;7.60;5.00;;;23.80;99.70;;;;;;5085458;27;45070;-59
2023/09/13 09:13:25;;;;;;;7.93;5.60;;;23.80;99.70;;;;;;5076926;28;45160;-59
2023/09/13 09:15:56;;;;;;;6.88;4.72;;;23.80;99.70;;;;;;5081084;28;47014;-59
2023/09/13 09:18:25;;;;;;;8.18;5.05;;;23.70;99.60;;;;;;5081195;28;44636;-59
2023/09/13 09:20:52;;;;;;;10.07;5.82;;;23.70;99.60;;;;;;5073359;28;44607;-59
2023/09/13 09:23:19;;;;;;;8.15;5.07;;;23.80;99.60;;;;;;5082881;27;45271;-59
2023/09/13 09:25:50;;;;;;;8.63;5.53;;;23.80;99.60;;;;;;5078530;28;48732;-59
2023/09/13 09:28:17;;;;;;;8.57;5.13;;;23.80;99.50;;;;;;5078765;27;45686;-59
2023/09/13 09:30:45;;;;;;;7.43;5.10;;;23.80;99.50;;;;;;5083573;28;45486;-59
2023/09/13 09:33:13;;;;;;;7.70;5.10;;;23.80;99.50;;;;;;5084381;28;45213;-58
2023/09/13 09:35:40;;;;;;;9.02;4.78;;;23.70;99.50;;;;;;5071091;28;46273;-58
2023/09/13 09:38:22;;;;;;;10.07;5.45;;;23.80;99.60;;;;;;5079363;28;45150;-58
2023/09/13 09:40:49;;;;;;;7.45;5.05;;;23.70;99.60;;;;;;5071649;27;45339;-58
2023/09/13 09:43:16;;;;;;;6.78;4.80;;;23.70;99.60;;;;;;5081284;28;45101;-58
2023/09/13 09:45:43;;;;;;;6.22;4.60;;;23.70;99.60;;;;;;5082384;28;45239;-58
2023/09/13 09:48:13;;;;;;;6.78;4.80;;;23.70;99.60;;;;;;5080358;27;45269;-58
2023/09/13 09:50:43;;;;;;;6.43;4.68;;;23.70;99.60;;;;;;5069898;28;45224;-58
2023/09/13 09:53:13;;;;;;;8.57;4.75;;;23.70;99.70;;;;;;5082076;28;45312;-58
2023/09/13 09:55:40;;;;;;;5.90;4.20;;;23.70;99.70;;;;;;5075965;28;47372;-58
2023/09/13 09:58:07;;;;;;;6.72;4.43;;;23.70;99.70;;;;;;5080133;28;45055;-58
2023/09/13 10:00:46;;;;;;;6.95;4.38;;;23.70;99.70;;;;;;5076482;28;45269;-58
2023/09/13 10:03:17;;;;;;;5.88;4.45;;;23.70;99.70;;;;;;5079184;27;45269;-58
2023/09/13 10:06:03;;;;;;;7.03;4.55;;;23.70;99.70;;;;;;5083526;28;48239;-58
2023/09/13 10:08:40;;;;;;;6.22;4.43;;;23.70;99.60;;;;;;5073639;28;45324;-58
2023/09/13 10:11:07;;;;;;;6.47;4.15;;;23.70;99.60;;;;;;5081077;28;45083;-58
2023/09/13 10:13:35;;;;;;;7.47;4.88;;;23.70;99.60;;;;;;5085195;28;45063;-58
2023/09/13 10:16:02;;;;;;;5.68;4.13;;;23.70;99.60;;;;;;5071850;28;45282;-58
2023/09/13 10:18:32;;;;;;;6.20;4.00;;;23.70;99.50;;;;;;5073964;28;45197;-58
2023/09/13 10:21:00;;;;;;;5.88;4.05;;;23.70;99.60;;;;;;5068398;28;45055;-58
2023/09/13 10:23:38;;;;;;;6.28;4.10;;;23.70;99.50;;;;;;5077076;27;45072;-58
2023/09/13 10:26:08;;;;;;;6.00;4.22;;;23.70;99.50;;;;;;5076360;28;46326;-58
2023/09/13 10:28:37;;;;;;;8.50;4.63;;;23.70;99.60;;;;;;5070280;28;45921;-58
2023/09/13 10:31:09;;;;;;;5.63;4.05;;;23.70;99.50;;;;;;5085387;28;45219;-58
2023/09/13 10:33:42;;;;;;;7.70;4.35;;;23.80;99.50;;;;;;5080808;28;44821;-58
2023/09/13 10:36:23;;;;;;;4.88;3.80;;;23.80;99.50;;;;;;5077164;28;45206;-58
2023/09/13 10:39:02;;;;;;;5.55;3.80;;;23.70;99.40;;;;;;5076165;28;45028;-58
2023/09/13 10:41:34;;;;;;;4.97;3.75;;;23.70;99.30;;;;;;5075455;28;45103;-58
2023/09/13 10:44:02;;;;;;;4.50;3.78;;;23.80;99.30;;;;;;5076299;28;45079;-58
2023/09/13 10:46:29;;;;;;;6.03;3.78;;;23.70;99.30;;;;;;5073427;28;45245;-58
2023/09/13 10:48:59;;;;;;;4.32;3.40;;;23.70;99.30;;;;;;5083263;28;45190;-58
2023/09/13 10:51:27;;;;;;;5.45;3.70;;;23.70;99.40;;;;;;5076720;28;45379;-58
2023/09/13 10:53:55;;;;;;;4.97;3.80;;;23.70;99.50;;;;;;5082206;28;44766;-58
2023/09/13 10:56:23;;;;;;;7.15;3.78;;;23.70;99.50;;;;;;5077755;28;46032;-58
2023/09/13 10:58:51;;;;;;;5.47;3.78;;;23.70;99.50;;;;;;5076205;28;45144;-58
2023/09/13 11:01:19;;;;;;;5.43;3.53;;;23.70;99.50;;;;;;5081992;28;44652;-58
2023/09/13 11:03:46;;;;;;;4.97;3.83;;;23.70;99.50;;;;;;5080642;27;45063;-58
2023/09/13 11:06:14;;;;;;;4.82;3.45;;;23.70;99.50;;;;;;5067660;28;46125;-58
2023/09/13 11:08:42;;;;;;;4.63;3.45;;;23.70;99.50;;;;;;5069403;28;44598;-58
2023/09/13 11:11:12;;;;;;;5.32;3.30;;;23.70;99.40;;;;;;5083002;28;44820;-58
2023/09/13 11:13:39;;;;;;;4.22;2.78;;;23.70;99.70;;;;;;5075982;28;45361;-58
2023/09/13 11:16:07;;;;;;;4.97;3.22;;;23.70;99.50;;;;;;5072159;27;46265;-58
2023/09/13 11:18:46;;;;;;;5.47;3.13;;;23.70;99.40;;;;;;5072867;28;45403;-58
2023/09/13 11:21:20;;;;;;;4.03;2.30;;;23.70;99.40;;;;;;5073150;28;44677;-57
2023/09/13 11:23:50;;;;;;;3.75;2.30;;;23.70;99.40;;;;;;5067158;28;45210;-58
2023/09/13 11:26:17;;;;;;;5.00;2.47;;;23.70;99.40;;;;;;5067119;28;47351;-58
2023/09/13 11:28:46;;;;;;;2.85;2.28;;;23.70;99.30;;;;;;5071754;28;44742;-58
2023/09/13 11:31:17;;;;;;;3.08;2.03;;;23.70;99.10;;;;;;5068639;28;45093;-58
2023/09/13 11:33:51;;;;;;;3.35;1.98;;;23.60;99.10;;;;;;5073605;27;45471;-58
2023/09/13 11:36:20;;;;;;;2.42;1.75;;;23.70;99.00;;;;;;5073385;28;47006;-58
2023/09/13 11:38:51;;;;;;;2.90;2.10;;;23.60;98.90;;;;;;5064390;28;45395;-58
2023/09/13 11:41:18;;;;;;;2.90;1.67;;;23.60;98.90;;;;;;5073919;28;45184;-58
2023/09/13 11:43:45;;;;;;;2.67;1.70;;;23.60;98.90;;;;;;5072541;28;45325;-58
2023/09/13 11:46:12;;;;;;;3.55;1.98;;;23.60;98.80;;;;;;5072296;28;48102;-58
2023/09/13 11:48:40;;;;;;;2.55;1.85;;;23.60;98.70;;;;;;5080423;28;45244;-58
2023/09/13 11:51:11;;;;;;;2.83;1.40;;;23.60;98.70;;;;;;5069249;28;45339;-58
2023/09/13 11:53:40;;;;;;;2.50;1.67;;;23.60;98.60;;;;;;5074235;28;45471;-58
2023/09/13 11:56:07;;;;;;;2.42;1.70;;;23.60;98.50;;;;;;5071648;27;48038;-58
2023/09/13 11:58:36;;;;;;;1.65;1.40;;;23.60;98.50;;;;;;5080949;28;45178;-58
2023/09/13 12:01:05;;;;;;;2.97;1.50;;;23.60;98.50;;;;;;5081679;27;45149;-58
2023/09/13 12:03:33;;;;;;;2.65;1.42;;;23.60;98.60;;;;;;5080748;28;45291;-57
2023/09/13 12:06:00;;;;;;;3.80;1.50;;;23.60;98.60;;;;;;5081762;28;45205;-57
2023/09/13 12:08:29;;;;;;;2.13;1.38;;;23.60;98.60;;;;;;5083799;28;45097;-57
2023/09/13 12:10:58;;;;;;;1.77;1.35;;;23.60;98.70;;;;;;5085261;28;45432;-57
2023/09/13 12:13:42;;;;;;;3.47;1.33;;;23.60;98.70;;;;;;5085845;28;45269;-57
2023/09/13 12:16:09;;;;;;;4.53;1.55;;;23.60;98.70;;;;;;5083614;28;46183;-57
2023/09/13 12:18:37;;;;;;;1.45;1.10;;;23.50;98.70;;;;;;5072300;27;45058;-57
2023/09/13 12:21:06;;;;;;;1.95;1.05;;;23.50;98.70;;;;;;5084511;28;45148;-57
2023/09/13 12:23:35;;;;;;;2.20;1.17;;;23.50;98.70;;;;;;5067045;28;44671;-57
2023/09/13 12:26:06;;;;;;;2.72;1.38;;;23.50;98.70;;;;;;5076459;28;45137;-57
2023/09/13 12:28:34;;;;;;;2.17;1.33;;;23.50;98.70;;;;;;5080398;27;45054;-57
2023/09/13 12:31:05;;;;;;;3.70;1.30;;;23.50;98.60;;;;;;5073902;28;45097;-57
2023/09/13 12:33:34;;;;;;;1.33;1.15;;;23.50;98.60;;;;;;5081290;28;45459;-57
2023/09/13 12:36:01;;;;;;;2.78;1.30;;;23.50;98.50;;;;;;5080566;28;45293;-57
2023/09/13 12:38:33;;;;;;;2.33;1.17;;;23.60;98.50;;;;;;5084883;28;44611;-57
2023/09/13 12:41:00;;;;;;;1.88;1.25;;;23.50;98.40;;;;;;5071994;27;45260;-57
2023/09/13 12:43:32;;;;;;;2.60;1.35;;;23.60;98.40;;;;;;5082830;28;45106;-57
2023/09/13 12:45:59;;;;;;;2.75;1.30;;;23.50;98.40;;;;;;5075317;28;45256;-58
2023/09/13 12:48:26;;;;;;;1.77;1.13;;;23.60;98.40;;;;;;5076488;28;45252;-57